createdAt,value
2023-05-06T00:01:42.002Z,3.17
2023-05-06T00:04:09.185Z,3.60
2023-05-06T00:06:37.654Z,3.38
2023-05-06T00:09:04.879Z,2.92
2023-05-06T00:11:31.884Z,3.17
2023-05-06T00:13:59.063Z,3.05
2023-05-06T00:16:26.052Z,3.30
2023-05-06T00:18:53.003Z,3.13
2023-05-06T00:21:19.989Z,3.53
2023-05-06T00:23:47.098Z,3.22
2023-05-06T00:26:14.107Z,3.63
2023-05-06T00:28:41.157Z,3.08
2023-05-06T00:31:09.566Z,2.78
2023-05-06T00:33:36.645Z,3.08
2023-05-06T00:36:03.757Z,2.95
2023-05-06T00:38:30.860Z,3.20
2023-05-06T00:40:57.831Z,2.88
2023-05-06T00:43:25.465Z,3.38
2023-05-06T00:45:52.524Z,3.60
2023-05-06T00:48:19.690Z,3.20
2023-05-06T00:50:46.797Z,3.15
2023-05-06T00:53:13.831Z,2.53
2023-05-06T00:55:42.010Z,2.80
2023-05-06T00:58:09.372Z,3.05
2023-05-06T01:00:36.366Z,2.95
2023-05-06T01:03:03.545Z,4.00
2023-05-06T01:05:39.648Z,3.58
2023-05-06T01:08:18.951Z,3.08
2023-05-06T01:11:02.808Z,3.42
2023-05-06T01:14:07.348Z,2.90
2023-05-06T01:16:39.231Z,3.22
2023-05-06T01:21:38.454Z,3.38
2023-05-06T01:24:05.959Z,2.25
2023-05-06T01:26:32.916Z,2.88
2023-05-06T01:29:02.039Z,3.13
2023-05-06T01:31:49.993Z,2.95
2023-05-06T01:34:38.725Z,3.17
2023-05-06T01:37:16.352Z,3.30
2023-05-06T01:39:44.938Z,3.60
2023-05-06T01:42:15.171Z,3.30
2023-05-06T01:44:45.462Z,3.20
2023-05-06T01:47:13.953Z,3.35
2023-05-06T01:49:41.150Z,3.00
2023-05-06T01:52:08.167Z,3.45
2023-05-06T01:54:35.131Z,2.97
2023-05-06T01:57:02.848Z,2.85
2023-05-06T01:59:30.296Z,3.15
2023-05-06T02:01:57.520Z,4.35
2023-05-06T02:04:24.548Z,3.30
2023-05-06T02:06:51.659Z,2.92
2023-05-06T02:09:19.810Z,3.30
2023-05-06T02:11:53.269Z,2.80
2023-05-06T02:14:20.364Z,2.90
2023-05-06T02:16:47.464Z,2.78
2023-05-06T02:19:14.863Z,2.90
2023-05-06T02:21:42.890Z,2.90
2023-05-06T02:24:10.161Z,2.88
2023-05-06T02:26:37.190Z,3.42
2023-05-06T02:29:04.548Z,3.50
2023-05-06T02:31:32.060Z,3.08
2023-05-06T02:33:59.062Z,2.63
2023-05-06T02:36:26.010Z,3.42
2023-05-06T02:38:54.870Z,3.50
2023-05-06T02:41:21.875Z,2.97
2023-05-06T02:43:48.886Z,3.38
2023-05-06T02:46:15.996Z,2.97
2023-05-06T02:48:43.135Z,3.45
2023-05-06T02:51:10.610Z,3.05
2023-05-06T02:53:37.675Z,3.78
2023-05-06T02:56:05.006Z,3.40
2023-05-06T02:58:31.975Z,4.00
2023-05-06T03:00:58.991Z,3.65
2023-05-06T03:03:26.127Z,3.45
2023-05-06T03:05:53.085Z,3.20
2023-05-06T03:08:20.189Z,3.42
2023-05-06T03:10:47.185Z,3.83
2023-05-06T03:13:17.180Z,4.05
2023-05-06T03:15:44.422Z,3.92
2023-05-06T03:18:11.766Z,4.60
2023-05-06T03:20:40.701Z,3.40
2023-05-06T03:23:07.685Z,3.85
2023-05-06T03:25:35.265Z,3.97
2023-05-06T03:28:02.334Z,3.67
2023-05-06T03:30:31.373Z,3.90
2023-05-06T03:33:02.356Z,4.38
2023-05-06T03:35:32.357Z,3.47
2023-05-06T03:38:00.745Z,3.90
2023-05-06T03:40:35.475Z,4.03
2023-05-06T03:43:02.579Z,4.63
2023-05-06T03:45:29.760Z,5.75
2023-05-06T03:47:59.977Z,4.88
2023-05-06T03:50:27.795Z,4.43
2023-05-06T03:52:55.003Z,4.53
2023-05-06T03:55:24.611Z,3.63
2023-05-06T03:57:51.806Z,4.20
2023-05-06T04:00:20.845Z,4.10
2023-05-06T04:02:52.297Z,4.05
2023-05-06T04:05:25.511Z,4.15
2023-05-06T04:07:53.067Z,4.53
2023-05-06T04:10:20.267Z,4.70
2023-05-06T04:12:50.167Z,4.50
2023-05-06T04:15:23.344Z,4.97
2023-05-06T04:17:50.665Z,5.32
2023-05-06T04:20:17.788Z,4.68
2023-05-06T04:22:44.762Z,4.53
2023-05-06T04:25:12.135Z,3.92
2023-05-06T04:27:39.424Z,5.07
2023-05-06T04:30:09.495Z,3.58
2023-05-06T04:32:38.576Z,4.30
2023-05-06T04:35:07.700Z,4.22
2023-05-06T04:37:34.970Z,4.53
2023-05-06T04:40:09.285Z,4.95
2023-05-06T04:42:38.875Z,5.80
2023-05-06T04:45:11.781Z,5.93
2023-05-06T04:47:41.160Z,6.13
2023-05-06T04:50:09.525Z,5.25
2023-05-06T04:52:37.463Z,5.55
2023-05-06T04:55:05.574Z,5.50
2023-05-06T04:57:35.370Z,5.35
2023-05-06T05:00:03.607Z,5.70
2023-05-06T05:02:30.648Z,4.68
2023-05-06T05:04:57.899Z,4.78
2023-05-06T05:07:25.537Z,5.22
2023-05-06T05:09:52.546Z,5.22
2023-05-06T05:12:19.569Z,5.90
2023-05-06T05:14:49.540Z,5.63
2023-05-06T05:17:16.784Z,5.35
2023-05-06T05:19:44.851Z,5.22
2023-05-06T05:22:13.355Z,6.40
2023-05-06T05:24:40.307Z,5.80
2023-05-06T05:27:08.917Z,5.07
2023-05-06T05:29:36.910Z,5.70
2023-05-06T05:32:06.445Z,5.65
2023-05-06T05:34:33.435Z,4.72
2023-05-06T05:37:01.227Z,5.35
2023-05-06T05:39:29.006Z,5.68
2023-05-06T05:41:56.474Z,5.18
2023-05-06T05:44:23.863Z,5.97
2023-05-06T05:46:51.339Z,6.15
2023-05-06T05:49:20.333Z,5.50
2023-05-06T05:51:49.548Z,6.53
2023-05-06T05:54:18.318Z,6.63
2023-05-06T05:56:46.496Z,6.53
2023-05-06T05:59:14.148Z,6.40
2023-05-06T06:01:42.103Z,6.35
2023-05-06T06:04:09.999Z,6.20
2023-05-06T06:06:37.004Z,6.82
2023-05-06T06:09:04.315Z,6.80
2023-05-06T06:11:31.520Z,7.28
2023-05-06T06:13:59.126Z,7.22
2023-05-06T06:16:27.047Z,7.53
2023-05-06T06:18:54.943Z,7.35
2023-05-06T06:21:21.973Z,7.45
2023-05-06T06:23:49.161Z,7.45
2023-05-06T06:26:16.255Z,6.78
2023-05-06T06:28:44.749Z,6.40
2023-05-06T06:31:12.093Z,6.53
2023-05-06T06:33:39.117Z,5.97
2023-05-06T06:36:06.617Z,6.13
2023-05-06T06:38:33.660Z,6.10
2023-05-06T06:41:00.628Z,5.93
2023-05-06T06:43:27.625Z,7.07
2023-05-06T06:46:02.112Z,6.35
2023-05-06T06:48:29.616Z,6.43
2023-05-06T06:50:56.658Z,6.65
2023-05-06T06:53:23.957Z,6.63
2023-05-06T06:55:51.448Z,6.53
2023-05-06T06:58:18.632Z,5.95
2023-05-06T07:00:45.670Z,6.40
2023-05-06T07:03:15.823Z,6.28
2023-05-06T07:05:42.850Z,5.13
2023-05-06T07:08:09.829Z,6.60
2023-05-06T07:10:37.301Z,6.45
2023-05-06T07:13:04.634Z,5.57
2023-05-06T07:15:31.652Z,6.13
2023-05-06T07:17:58.628Z,6.63
2023-05-06T07:20:25.728Z,5.45
2023-05-06T07:22:52.743Z,5.43
2023-05-06T07:25:19.835Z,5.93
2023-05-06T07:27:46.786Z,5.47
2023-05-06T07:30:14.086Z,5.85
2023-05-06T07:32:41.337Z,4.72
2023-05-06T07:35:09.379Z,5.18
2023-05-06T07:37:36.661Z,4.63
2023-05-06T07:40:04.110Z,4.95
2023-05-06T07:42:31.183Z,4.82
2023-05-06T07:44:58.226Z,4.95
2023-05-06T07:47:31.571Z,4.70
2023-05-06T07:50:00.068Z,4.88
2023-05-06T07:52:27.701Z,4.40
2023-05-06T07:54:54.751Z,4.88
2023-05-06T07:57:21.891Z,4.60
2023-05-06T07:59:50.594Z,4.38
2023-05-06T08:02:18.786Z,4.07
2023-05-06T08:04:47.021Z,4.72
2023-05-06T08:07:15.800Z,4.70
2023-05-06T08:09:42.798Z,4.30
2023-05-06T08:12:10.055Z,3.90
2023-05-06T08:14:37.090Z,3.42
2023-05-06T08:17:04.214Z,4.05
2023-05-06T08:19:31.659Z,3.22
2023-05-06T08:21:58.649Z,2.78
2023-05-06T08:24:25.709Z,3.45
2023-05-06T08:26:52.811Z,3.22
2023-05-06T08:29:19.890Z,3.17
2023-05-06T08:31:47.480Z,2.63
2023-05-06T08:34:14.563Z,2.78
2023-05-06T08:36:41.704Z,2.28
2023-05-06T08:39:08.686Z,2.63
2023-05-06T08:41:40.198Z,2.80
2023-05-06T08:44:08.606Z,2.45
2023-05-06T08:46:36.368Z,2.85
2023-05-06T08:49:03.395Z,1.77
2023-05-06T08:51:31.824Z,2.28
2023-05-06T08:54:04.713Z,1.40
2023-05-06T08:56:33.787Z,1.85
2023-05-06T08:59:01.312Z,2.28
2023-05-06T09:01:29.169Z,1.80
2023-05-06T09:03:58.225Z,2.00
2023-05-06T09:06:25.419Z,2.10
2023-05-06T09:08:52.581Z,2.20
2023-05-06T09:11:31.836Z,2.50
2023-05-06T09:14:17.061Z,2.35
2023-05-06T09:16:50.790Z,2.20
2023-05-06T09:19:20.145Z,2.60
2023-05-06T09:21:50.108Z,2.38
2023-05-06T09:24:17.920Z,2.30
2023-05-06T09:26:46.503Z,2.60
2023-05-06T09:29:14.072Z,2.30
2023-05-06T09:31:51.175Z,1.75
2023-05-06T09:34:18.217Z,1.80
2023-05-06T09:36:45.401Z,2.58
2023-05-06T09:39:12.395Z,2.40
2023-05-06T09:41:39.461Z,2.20
2023-05-06T09:44:06.582Z,1.88
2023-05-06T09:46:33.674Z,1.65
2023-05-06T09:49:01.869Z,1.67
2023-05-06T09:51:31.201Z,1.25
2023-05-06T09:53:59.686Z,1.48
2023-05-06T09:56:27.064Z,1.50
2023-05-06T09:58:55.708Z,1.70
2023-05-06T10:01:35.305Z,1.48
2023-05-06T10:04:09.537Z,1.65
2023-05-06T10:06:39.618Z,1.50
2023-05-06T10:09:09.199Z,1.40
2023-05-06T10:11:36.767Z,2.28
2023-05-06T10:14:05.414Z,1.52
2023-05-06T10:16:36.485Z,1.48
2023-05-06T10:19:04.994Z,2.42
2023-05-06T10:21:34.279Z,3.78
2023-05-06T10:24:07.752Z,1.73
2023-05-06T10:26:38.153Z,2.25
2023-05-06T10:29:10.812Z,1.60
2023-05-06T10:31:49.416Z,1.90
2023-05-06T10:34:19.947Z,1.42
2023-05-06T10:36:52.110Z,1.20
2023-05-06T10:39:20.090Z,1.25
2023-05-06T10:41:48.119Z,1.38
2023-05-06T10:44:15.112Z,1.35
2023-05-06T10:46:59.740Z,1.67
2023-05-06T10:49:27.332Z,2.00
2023-05-06T10:52:17.411Z,1.20
2023-05-06T10:54:50.673Z,1.17
2023-05-06T10:57:18.479Z,1.40
2023-05-06T10:59:47.317Z,1.65
2023-05-06T11:02:15.096Z,1.20
2023-05-06T11:04:42.396Z,1.20
2023-05-06T11:07:16.473Z,1.45
2023-05-06T11:10:06.827Z,2.88
2023-05-06T11:12:55.231Z,1.10
2023-05-06T11:15:39.844Z,1.00
2023-05-06T11:18:25.521Z,0.80
2023-05-06T11:21:20.460Z,1.67
2023-05-06T11:23:49.731Z,1.20
2023-05-06T11:26:17.086Z,1.10
2023-05-06T11:28:47.129Z,1.20
2023-05-06T11:31:15.619Z,1.00
2023-05-06T11:33:47.726Z,1.20
2023-05-06T11:36:19.753Z,1.15
2023-05-06T11:38:52.898Z,0.80
2023-05-06T11:41:22.931Z,0.90
2023-05-06T11:43:52.288Z,1.10
2023-05-06T11:46:21.282Z,0.90
2023-05-06T11:48:48.995Z,0.90
2023-05-06T11:51:16.309Z,0.95
2023-05-06T11:53:43.282Z,2.25
2023-05-06T11:56:10.361Z,2.10
2023-05-06T11:58:37.301Z,1.25
2023-05-06T12:01:04.637Z,2.17
2023-05-06T12:03:33.548Z,1.23
2023-05-06T12:06:01.276Z,1.35
2023-05-06T12:08:34.999Z,2.10
2023-05-06T12:11:05.740Z,2.15
2023-05-06T12:13:34.935Z,1.00
2023-05-06T12:16:02.783Z,0.95
2023-05-06T12:18:30.711Z,1.00
2023-05-06T12:21:02.484Z,0.90
2023-05-06T12:23:29.699Z,1.00
2023-05-06T12:26:06.175Z,1.20
2023-05-06T12:28:36.232Z,1.33
2023-05-06T12:31:23.359Z,0.60
2023-05-06T12:33:50.770Z,0.60
2023-05-06T12:36:18.917Z,1.02
2023-05-06T12:38:56.443Z,1.05
2023-05-06T12:41:35.636Z,0.98
2023-05-06T12:44:02.952Z,1.23
2023-05-06T12:46:30.040Z,1.33
2023-05-06T12:49:02.214Z,0.60
2023-05-06T12:51:31.001Z,0.55
2023-05-06T12:53:58.203Z,0.80
2023-05-06T12:56:25.362Z,1.10
2023-05-06T12:59:00.901Z,1.20
2023-05-06T13:01:28.209Z,0.70
2023-05-06T13:03:57.506Z,0.75
2023-05-06T13:06:24.883Z,0.57
2023-05-06T13:08:51.907Z,0.68
2023-05-06T13:11:18.954Z,1.00
2023-05-06T13:13:45.978Z,1.05
2023-05-06T13:16:13.142Z,0.57
2023-05-06T13:18:40.187Z,0.38
2023-05-06T13:21:07.625Z,0.57
2023-05-06T13:23:36.679Z,0.50
2023-05-06T13:26:06.189Z,1.40
2023-05-06T13:28:35.406Z,0.63
2023-05-06T13:31:02.521Z,2.33
2023-05-06T13:33:30.102Z,1.10
2023-05-06T13:35:57.565Z,1.25
2023-05-06T13:38:24.585Z,0.70
2023-05-06T13:40:53.390Z,0.70
2023-05-06T13:43:21.949Z,0.90
2023-05-06T13:45:49.007Z,0.60
2023-05-06T13:48:16.148Z,0.90
2023-05-06T13:50:47.308Z,0.50
2023-05-06T13:53:15.356Z,1.60
2023-05-06T13:55:43.036Z,0.73
2023-05-06T13:58:11.250Z,0.50
2023-05-06T14:00:38.925Z,0.60
2023-05-06T14:03:06.147Z,1.08
2023-05-06T14:05:33.493Z,0.73
2023-05-06T14:08:00.838Z,0.63
2023-05-06T14:10:28.151Z,0.70
2023-05-06T14:12:55.157Z,1.08
2023-05-06T14:15:22.125Z,0.80
2023-05-06T14:17:49.283Z,0.68
2023-05-06T14:20:16.328Z,0.90
2023-05-06T14:22:44.247Z,2.45
2023-05-06T14:25:11.822Z,1.40
2023-05-06T14:27:39.971Z,0.73
2023-05-06T14:30:09.445Z,0.70
2023-05-06T14:32:37.563Z,0.90
2023-05-06T14:35:05.577Z,1.20
2023-05-06T14:37:32.596Z,0.60
2023-05-06T14:39:59.622Z,1.00
2023-05-06T14:42:26.772Z,0.82
2023-05-06T14:44:54.158Z,0.65
2023-05-06T14:47:21.365Z,1.33
2023-05-06T14:49:48.442Z,0.80
2023-05-06T14:52:15.509Z,0.60
2023-05-06T14:54:42.948Z,0.63
2023-05-06T14:57:11.477Z,0.30
2023-05-06T14:59:39.068Z,0.70
2023-05-06T15:02:09.304Z,0.82
2023-05-06T15:04:37.138Z,1.08
2023-05-06T15:07:04.376Z,1.42
2023-05-06T15:09:31.551Z,0.90
2023-05-06T15:12:01.783Z,1.20
2023-05-06T15:14:29.334Z,1.00
2023-05-06T15:16:57.245Z,0.80
2023-05-06T15:19:27.908Z,1.25
2023-05-06T15:21:55.219Z,1.37
2023-05-06T15:24:23.121Z,1.08
2023-05-06T15:26:56.336Z,1.88
2023-05-06T15:29:24.783Z,1.08
2023-05-06T15:31:51.860Z,0.90
2023-05-06T15:34:20.922Z,0.52
2023-05-06T15:36:54.129Z,0.82
2023-05-06T15:39:22.132Z,1.00
2023-05-06T15:41:49.195Z,0.90
2023-05-06T15:44:16.545Z,0.90
2023-05-06T15:46:43.732Z,0.93
2023-05-06T15:51:47.531Z,0.88
2023-05-06T15:54:20.730Z,1.25
2023-05-06T15:56:52.607Z,0.88
2023-05-06T15:59:27.061Z,0.80
2023-05-06T16:04:25.038Z,0.75
2023-05-06T16:06:52.216Z,0.93
2023-05-06T16:09:19.148Z,1.83
2023-05-06T16:11:46.296Z,1.10
2023-05-06T16:14:13.429Z,1.15
2023-05-06T16:16:40.767Z,3.00
2023-05-06T16:19:08.131Z,0.57
2023-05-06T16:21:35.108Z,0.75
2023-05-06T16:24:02.468Z,0.80
2023-05-06T16:26:30.004Z,0.60
2023-05-06T16:28:57.858Z,1.05
2023-05-06T16:31:25.033Z,0.70
2023-05-06T16:33:52.108Z,0.57
2023-05-06T16:36:19.051Z,1.20
2023-05-06T16:38:46.576Z,1.30
2023-05-06T16:41:13.736Z,1.00
2023-05-06T16:43:41.045Z,1.08
2023-05-06T16:46:10.424Z,0.73
2023-05-06T16:48:37.862Z,0.90
2023-05-06T16:51:05.887Z,0.90
2023-05-06T16:53:33.455Z,0.90
2023-05-06T16:56:15.111Z,0.82
2023-05-06T16:58:42.953Z,1.05
2023-05-06T17:01:11.193Z,1.10
2023-05-06T17:03:39.084Z,0.90
2023-05-06T17:06:06.253Z,0.98
2023-05-06T17:08:36.290Z,1.45
2023-05-06T17:11:06.839Z,1.35
2023-05-06T17:13:34.761Z,1.00
2023-05-06T17:16:02.172Z,0.95
2023-05-06T17:18:29.273Z,0.98
2023-05-06T17:20:57.350Z,0.93
2023-05-06T17:23:25.084Z,0.75
2023-05-06T17:25:52.150Z,0.73
2023-05-06T17:28:19.285Z,0.90
2023-05-06T17:30:46.917Z,1.45
2023-05-06T17:33:14.063Z,2.40
2023-05-06T17:35:41.029Z,2.50
2023-05-06T17:38:09.506Z,2.38
2023-05-06T17:40:36.453Z,1.17
2023-05-06T17:43:03.598Z,1.10
2023-05-06T17:45:30.844Z,1.30
2023-05-06T17:47:57.936Z,1.02
2023-05-06T17:50:25.347Z,1.38
2023-05-06T17:52:54.439Z,1.50
2023-05-06T17:55:22.746Z,1.48
2023-05-06T17:57:50.293Z,1.40
2023-05-06T18:00:17.539Z,1.60
2023-05-06T18:02:45.367Z,1.02
2023-05-06T18:05:13.557Z,0.70
2023-05-06T18:07:40.974Z,0.98
2023-05-06T18:10:08.894Z,0.90
2023-05-06T18:12:35.992Z,1.10
2023-05-06T18:15:03.325Z,1.30
2023-05-06T18:17:30.645Z,1.10
2023-05-06T18:19:57.776Z,1.13
2023-05-06T18:22:24.952Z,0.90
2023-05-06T18:24:55.140Z,0.90
2023-05-06T18:27:22.822Z,1.33
2023-05-06T18:29:49.798Z,1.33
2023-05-06T18:32:17.683Z,1.35
2023-05-06T18:34:45.183Z,1.60
2023-05-06T18:37:12.205Z,1.95
2023-05-06T18:39:43.184Z,1.67
2023-05-06T18:42:10.356Z,1.80
2023-05-06T18:44:37.858Z,1.70
2023-05-06T18:47:05.054Z,1.63
2023-05-06T18:49:32.134Z,1.98
2023-05-06T18:51:59.461Z,1.55
2023-05-06T18:54:26.515Z,1.35
2023-05-06T18:56:54.724Z,1.20
2023-05-06T18:59:21.918Z,1.20
2023-05-06T19:01:49.283Z,1.52
2023-05-06T19:04:16.293Z,1.50
2023-05-06T19:06:43.614Z,1.63
2023-05-06T19:09:11.395Z,2.38
2023-05-06T19:11:38.854Z,2.08
2023-05-06T19:14:06.001Z,1.40
2023-05-06T19:16:33.051Z,1.50
2023-05-06T19:19:02.522Z,1.80
2023-05-06T19:21:29.646Z,1.27
2023-05-06T19:24:00.922Z,1.17
2023-05-06T19:26:28.685Z,0.85
2023-05-06T19:28:56.199Z,1.10
2023-05-06T19:31:23.426Z,1.10
2023-05-06T19:33:50.678Z,0.90
2023-05-06T19:36:17.676Z,0.80
2023-05-06T19:38:44.708Z,0.90
2023-05-06T19:41:11.737Z,0.70
2023-05-06T19:43:43.575Z,0.65
2023-05-06T19:46:14.294Z,1.00
2023-05-06T19:48:41.295Z,0.98
2023-05-06T19:51:08.566Z,0.57
2023-05-06T19:53:36.339Z,0.90
2023-05-06T19:56:14.385Z,1.20
2023-05-06T19:58:41.490Z,1.08
2023-05-06T20:01:09.048Z,0.90
2023-05-06T20:03:36.365Z,0.80
2023-05-06T20:06:04.055Z,0.85
2023-05-06T20:08:31.218Z,0.63
2023-05-06T20:10:58.384Z,0.88
2023-05-06T20:13:25.925Z,1.20
2023-05-06T20:15:54.940Z,1.08
2023-05-06T20:18:22.747Z,0.85
2023-05-06T20:20:49.723Z,1.20
2023-05-06T20:23:17.471Z,1.30
2023-05-06T20:25:44.477Z,1.85
2023-05-06T20:28:11.675Z,1.40
2023-05-06T20:30:38.979Z,1.10
2023-05-06T20:33:06.685Z,1.65
2023-05-06T20:35:38.238Z,1.17
2023-05-06T20:38:06.532Z,1.52
2023-05-06T20:40:35.765Z,1.05
2023-05-06T20:43:02.943Z,1.52
2023-05-06T20:45:31.385Z,1.48
2023-05-06T20:47:58.664Z,2.10
2023-05-06T20:50:26.180Z,1.10
2023-05-06T20:52:54.319Z,1.38
2023-05-06T20:55:23.289Z,1.60
2023-05-06T20:57:50.794Z,1.52
2023-05-06T21:00:18.903Z,1.55
2023-05-06T21:02:45.987Z,1.40
2023-05-06T21:05:13.507Z,1.45
2023-05-06T21:07:40.864Z,2.25
2023-05-06T21:10:09.922Z,1.20
2023-05-06T21:12:37.474Z,1.17
2023-05-06T21:15:05.183Z,1.17
2023-05-06T21:17:32.364Z,1.00
2023-05-06T21:19:59.417Z,0.95
2023-05-06T21:22:26.752Z,1.08
2023-05-06T21:24:53.839Z,0.90
2023-05-06T21:27:20.900Z,0.80
2023-05-06T21:29:48.316Z,1.10
2023-05-06T21:32:15.437Z,1.40
2023-05-06T21:34:42.525Z,1.05
2023-05-06T21:37:09.584Z,1.33
2023-05-06T21:39:36.865Z,1.73
2023-05-06T21:42:03.842Z,1.23
2023-05-06T21:44:30.991Z,1.60
2023-05-06T21:46:58.490Z,1.52
2023-05-06T21:49:25.568Z,1.85
2023-05-06T21:51:53.029Z,1.40
2023-05-06T21:54:20.038Z,1.58
2023-05-06T21:56:47.019Z,1.33
2023-05-06T21:59:13.988Z,1.20
2023-05-06T22:01:41.016Z,1.10
2023-05-06T22:04:12.835Z,1.45
2023-05-06T22:06:40.179Z,1.23
2023-05-06T22:09:09.468Z,1.35
2023-05-06T22:11:38.211Z,1.15
2023-05-06T22:14:06.776Z,1.42
2023-05-06T22:16:35.478Z,1.23
2023-05-06T22:19:03.881Z,1.10
2023-05-06T22:21:31.946Z,1.02
2023-05-06T22:23:59.321Z,0.95
2023-05-06T22:26:28.269Z,1.08
2023-05-06T22:28:58.548Z,0.90
2023-05-06T22:31:25.887Z,1.50
2023-05-06T22:33:57.618Z,1.13
2023-05-06T22:38:56.483Z,0.73
2023-05-06T22:41:23.857Z,1.23
2023-05-06T22:43:50.926Z,1.30
2023-05-06T22:46:18.362Z,1.20
2023-05-06T22:48:46.264Z,0.98
2023-05-06T22:51:18.580Z,1.20
2023-05-06T22:53:45.619Z,1.50
2023-05-06T22:56:12.828Z,1.20
2023-05-06T22:58:39.946Z,1.40
2023-05-06T23:01:07.542Z,1.10
2023-05-06T23:03:35.490Z,1.20
2023-05-06T23:06:03.902Z,1.15
2023-05-06T23:08:31.071Z,1.20
2023-05-06T23:10:58.025Z,1.20
2023-05-06T23:13:26.433Z,1.10
2023-05-06T23:15:53.677Z,1.55
2023-05-06T23:18:21.030Z,0.93
2023-05-06T23:20:48.068Z,1.10
2023-05-06T23:23:15.050Z,1.40
2023-05-06T23:25:41.997Z,0.93
2023-05-06T23:28:08.982Z,1.15
2023-05-06T23:30:35.974Z,1.20
2023-05-06T23:33:03.726Z,1.10
2023-05-06T23:35:31.572Z,1.30
2023-05-06T23:37:58.837Z,1.45
2023-05-06T23:40:25.881Z,1.30
2023-05-06T23:42:53.148Z,1.30
2023-05-06T23:45:20.360Z,1.27
2023-05-06T23:47:47.352Z,1.05
2023-05-06T23:50:14.835Z,0.90
2023-05-06T23:52:41.925Z,1.15
2023-05-06T23:55:09.800Z,1.33
2023-05-06T23:57:37.177Z,1.40
